Time,TemperatureF,DewpointF,PressureIn,WindDirection,WindDirectionDegrees,WindSpeedMPH,WindSpeedGustMPH,Humidity,HourlyPrecipIn,Conditions,Clouds,dailyrainin,SoftwareType,DateUTC
2013-03-15 00:08:00,55.2,31.8,30.19,SW,225,0.8,0.8,41,0.00,,,0.00,WUHU21636XXSP,2013-03-15 05:08:00,
2013-03-15 00:18:00,54.7,31.8,30.18,WSW,247,0.6,3.1,42,0.00,,,0.00,WUHU21636XXSP,2013-03-15 05:18:00,
2013-03-15 00:28:00,54.5,32.2,30.18,WSW,247,1.1,4.6,43,0.00,,,0.00,WUHU21636XXSP,2013-03-15 05:28:00,
2013-03-15 00:38:00,54.1,32.5,30.18,WSW,247,3.8,3.8,44,0.00,,,0.00,WUHU21636XXSP,2013-03-15 05:38:00,
2013-03-15 00:48:00,54.0,32.9,30.18,WSW,247,2.4,4.0,45,0.00,,,0.00,WUHU21636XXSP,2013-03-15 05:48:00,
2013-03-15 00:58:00,53.6,33.1,30.18,SW,225,3.1,6.2,46,0.00,,,0.00,WUHU21636XXSP,2013-03-15 05:58:00,
2013-03-15 01:08:00,53.2,32.7,30.18,SW,225,7.1,10.0,46,0.00,,,0.00,WUHU21636XXSP,2013-03-15 06:08:00,
2013-03-15 01:18:00,52.5,32.7,30.17,SW,225,0.8,8.0,47,0.00,,,0.00,WUHU21636XXSP,2013-03-15 06:18:00,
2013-03-15 01:28:00,52.0,32.2,30.17,SW,225,0.0,2.6,47,0.00,,,0.00,WUHU21636XXSP,2013-03-15 06:28:00,
2013-03-15 01:38:00,51.4,32.4,30.17,SW,225,0.0,1.5,48,0.00,,,0.00,WUHU21636XXSP,2013-03-15 06:38:00,
2013-03-15 01:48:00,51.1,32.5,30.17,WNW,292,2.9,3.3,49,0.00,,,0.00,WUHU21636XXSP,2013-03-15 06:48:00,
2013-03-15 01:58:00,50.7,32.7,30.16,West,270,5.3,5.3,50,0.00,,,0.00,WUHU21636XXSP,2013-03-15 06:58:00,
2013-03-15 02:08:00,50.7,32.7,30.15,West,270,2.0,5.3,50,0.00,,,0.00,WUHU21636XXSP,2013-03-15 07:08:00,
2013-03-15 02:18:00,50.2,32.7,30.15,WSW,247,4.2,4.4,51,0.00,,,0.00,WUHU21636XXSP,2013-03-15 07:18:00,
2013-03-15 02:28:00,49.6,32.7,30.15,WSW,247,4.4,4.6,52,0.00,,,0.00,WUHU21636XXSP,2013-03-15 07:28:00,
2013-03-15 02:38:00,49.1,32.2,30.14,WSW,247,5.5,5.5,52,0.00,,,0.00,WUHU21636XXSP,2013-03-15 07:38:00,
2013-03-15 02:48:00,49.1,32.2,30.14,WSW,247,4.0,7.6,52,0.00,,,0.00,WUHU21636XXSP,2013-03-15 07:48:00,
2013-03-15 02:58:00,48.4,31.8,30.14,SW,225,4.9,7.8,53,0.00,,,0.00,WUHU21636XXSP,2013-03-15 07:58:00,
2013-03-15 03:08:00,47.5,31.5,30.14,WSW,247,6.0,11.8,54,0.00,,,0.00,WUHU21636XXSP,2013-03-15 08:08:00,
2013-03-15 03:18:00,46.8,31.3,30.13,West,270,5.3,10.7,55,0.00,,,0.00,WUHU21636XXSP,2013-03-15 08:18:00,
2013-03-15 03:28:00,46.2,30.7,30.12,WSW,247,5.5,5.5,55,0.00,,,0.00,WUHU21636XXSP,2013-03-15 08:28:00,
2013-03-15 03:38:00,45.9,30.4,30.12,West,270,2.4,5.5,55,0.00,,,0.00,WUHU21636XXSP,2013-03-15 08:38:00,
2013-03-15 03:48:00,45.1,30.7,30.11,West,270,3.1,3.1,57,0.00,,,0.00,WUHU21636XXSP,2013-03-15 08:48:00,
2013-03-15 03:58:00,44.8,30.4,30.11,West,270,0.8,3.1,57,0.00,,,0.00,WUHU21636XXSP,2013-03-15 08:58:00,
2013-03-15 04:08:00,44.2,30.4,30.11,West,270,2.0,3.5,58,0.00,,,0.00,WUHU21636XXSP,2013-03-15 09:08:00,
2013-03-15 04:18:00,43.7,30.7,30.11,WNW,292,7.6,11.8,60,0.00,,,0.00,WUHU21636XXSP,2013-03-15 09:18:00,
2013-03-15 04:28:00,44.2,31.3,30.10,West,270,6.4,14.0,60,0.00,,,0.00,WUHU21636XXSP,2013-03-15 09:28:00,
2013-03-15 04:38:00,44.2,31.6,30.10,West,270,7.1,13.6,61,0.00,,,0.00,WUHU21636XXSP,2013-03-15 09:38:00,
2013-03-15 04:48:00,45.1,32.0,30.09,West,270,7.1,14.9,60,0.00,,,0.00,WUHU21636XXSP,2013-03-15 09:48:00,
2013-03-15 04:58:00,45.0,31.8,30.09,West,270,4.0,10.7,60,0.00,,,0.00,WUHU21636XXSP,2013-03-15 09:58:00,
2013-03-15 05:08:00,44.4,31.5,30.08,West,270,1.3,4.6,60,0.00,,,0.00,WUHU21636XXSP,2013-03-15 10:08:00,
2013-03-15 05:18:00,44.4,31.8,30.08,West,270,4.6,6.7,61,0.00,,,0.00,WUHU21636XXSP,2013-03-15 10:18:00,
2013-03-15 05:28:00,44.4,31.5,30.08,West,270,6.2,10.5,60,0.00,,,0.00,WUHU21636XXSP,2013-03-15 10:28:00,
2013-03-15 05:38:00,44.4,31.5,30.08,West,270,4.4,8.7,60,0.00,,,0.00,WUHU21636XXSP,2013-03-15 10:38:00,
2013-03-15 05:49:00,43.9,31.3,30.08,West,270,4.6,4.6,61,0.00,,,0.00,WUHU21636XXSP,2013-03-15 10:49:00,
2013-03-15 05:59:00,43.7,31.5,30.08,West,270,2.4,4.6,61,0.00,,,0.00,WUHU21636XXSP,2013-03-15 10:59:00,
2013-03-15 06:09:00,43.2,31.3,30.08,West,270,1.5,3.5,63,0.00,,,0.00,WUHU21636XXSP,2013-03-15 11:09:00,
2013-03-15 06:19:00,43.0,31.5,30.07,West,270,5.5,5.5,64,0.00,,,0.00,WUHU21636XXSP,2013-03-15 11:19:00,
2013-03-15 06:29:00,42.6,31.1,30.07,West,270,5.5,5.5,64,0.00,,,0.00,WUHU21636XXSP,2013-03-15 11:29:00,
2013-03-15 06:39:00,42.1,31.1,30.07,West,270,6.2,6.4,65,0.00,,,0.00,WUHU21636XXSP,2013-03-15 11:39:00,
2013-03-15 06:49:00,41.7,30.7,30.07,West,270,3.5,7.6,65,0.00,,,0.00,WUHU21636XXSP,2013-03-15 11:49:00,
2013-03-15 06:59:00,41.5,30.9,30.07,West,270,2.6,4.0,66,0.00,,,0.00,WUHU21636XXSP,2013-03-15 11:59:00,
2013-03-15 07:09:00,40.8,30.6,30.07,West,270,4.9,4.9,67,0.00,,,0.00,WUHU21636XXSP,2013-03-15 12:09:00,
2013-03-15 07:19:00,40.3,30.4,30.07,West,270,4.9,4.9,68,0.00,,,0.00,WUHU21636XXSP,2013-03-15 12:19:00,
2013-03-15 07:29:00,39.9,30.4,30.06,West,270,3.5,7.1,69,0.00,,,0.00,WUHU21636XXSP,2013-03-15 12:29:00,
2013-03-15 07:39:00,39.7,30.2,30.06,West,270,0.4,5.1,69,0.00,,,0.00,WUHU21636XXSP,2013-03-15 12:39:00,
2013-03-15 07:49:00,39.2,30.2,30.06,West,270,2.4,3.8,70,0.00,,,0.00,WUHU21636XXSP,2013-03-15 12:49:00,
2013-03-15 07:59:00,38.8,30.2,30.06,West,270,1.3,4.4,71,0.00,,,0.00,WUHU21636XXSP,2013-03-15 12:59:00,
2013-03-15 08:09:00,38.3,29.7,30.06,West,270,2.0,5.1,71,0.00,,,0.00,WUHU21636XXSP,2013-03-15 13:09:00,
2013-03-15 08:19:00,38.1,29.5,30.06,WSW,247,2.4,3.8,72,0.00,,,0.00,WUHU21636XXSP,2013-03-15 13:19:00,
2013-03-15 08:29:00,38.1,29.8,30.06,WSW,247,1.5,4.0,72,0.00,,,0.00,WUHU21636XXSP,2013-03-15 13:29:00,
2013-03-15 08:39:00,38.1,30.2,30.06,WSW,247,5.1,5.1,73,0.00,,,0.00,WUHU21636XXSP,2013-03-15 13:39:00,
2013-03-15 08:49:00,39.0,30.9,30.06,West,270,4.0,5.3,73,0.00,,,0.00,WUHU21636XXSP,2013-03-15 13:49:00,
2013-03-15 08:59:00,40.1,31.6,30.05,West,270,1.3,4.0,72,0.00,,,0.00,WUHU21636XXSP,2013-03-15 13:59:00,
2013-03-15 09:09:00,41.5,32.7,30.05,WSW,247,3.5,8.2,71,0.00,,,0.00,WUHU21636XXSP,2013-03-15 14:09:00,
2013-03-15 09:19:00,42.4,33.4,30.05,WSW,247,4.9,4.9,70,0.00,,,0.00,WUHU21636XXSP,2013-03-15 14:19:00,
2013-03-15 09:29:00,43.9,33.4,30.05,West,270,4.0,4.9,67,0.00,,,0.00,WUHU21636XXSP,2013-03-15 14:29:00,
2013-03-15 09:39:00,44.8,34.0,30.04,West,270,1.3,4.4,66,0.00,,,0.00,WUHU21636XXSP,2013-03-15 14:39:00,
2013-03-15 09:49:00,45.0,34.2,30.05,West,270,0.0,3.1,66,0.00,,,0.00,WUHU21636XXSP,2013-03-15 14:49:00,
2013-03-15 09:59:00,45.9,34.7,30.04,West,270,4.6,4.6,65,0.00,,,0.00,WUHU21636XXSP,2013-03-15 14:59:00,
2013-03-15 10:09:00,47.5,35.1,30.04,West,270,2.4,4.6,62,0.00,,,0.00,WUHU21636XXSP,2013-03-15 15:09:00,
2013-03-15 10:19:00,48.4,35.1,30.04,West,270,1.1,3.1,60,0.00,,,0.00,WUHU21636XXSP,2013-03-15 15:19:00,
2013-03-15 10:29:00,49.8,36.0,30.04,West,270,4.0,8.2,59,0.00,,,0.00,WUHU21636XXSP,2013-03-15 15:29:00,
2013-03-15 10:39:00,50.9,36.1,30.03,WNW,292,4.2,13.6,57,0.00,,,0.00,WUHU21636XXSP,2013-03-15 15:39:00,
2013-03-15 10:49:00,52.0,36.5,30.03,NW,315,5.1,11.4,56,0.00,,,0.00,WUHU21636XXSP,2013-03-15 15:49:00,
2013-03-15 10:59:00,52.5,36.7,30.03,WNW,292,3.5,7.6,54,0.00,,,0.00,WUHU21636XXSP,2013-03-15 15:59:00,
2013-03-15 11:09:00,53.2,36.9,30.03,WNW,292,1.3,3.5,54,0.00,,,0.00,WUHU21636XXSP,2013-03-15 16:09:00,
2013-03-15 11:19:00,54.1,37.2,30.03,NW,315,0.8,7.3,53,0.00,,,0.00,WUHU21636XXSP,2013-03-15 16:19:00,
2013-03-15 11:29:00,54.7,37.2,30.03,North,0,0.0,4.2,51,0.00,,,0.00,WUHU21636XXSP,2013-03-15 16:29:00,
2013-03-15 11:39:00,55.9,36.3,30.03,WNW,292,2.0,5.1,48,0.00,,,0.00,WUHU21636XXSP,2013-03-15 16:39:00,
2013-03-15 11:49:00,57.0,36.3,30.02,WNW,292,0.6,4.4,46,0.00,,,0.00,WUHU21636XXSP,2013-03-15 16:49:00,
2013-03-15 11:59:00,57.7,36.3,30.02,West,270,4.0,5.1,45,0.00,,,0.00,WUHU21636XXSP,2013-03-15 16:59:00,
2013-03-15 12:09:00,59.0,36.9,30.01,West,270,1.3,4.6,44,0.00,,,0.00,WUHU21636XXSP,2013-03-15 17:09:00,
2013-03-15 12:19:00,59.7,37.6,30.01,WNW,292,2.9,4.9,44,0.00,,,0.00,WUHU21636XXSP,2013-03-15 17:19:00,
2013-03-15 12:29:00,60.4,38.8,30.01,WSW,247,3.3,3.3,45,0.00,,,0.00,WUHU21636XXSP,2013-03-15 17:29:00,
2013-03-15 12:39:00,61.7,38.8,30.01,West,270,0.0,4.2,43,0.00,,,0.00,WUHU21636XXSP,2013-03-15 17:39:00,
2013-03-15 12:49:00,63.7,38.1,30.00,West,270,4.4,4.4,39,0.00,,,0.00,WUHU21636XXSP,2013-03-15 17:49:00,
2013-03-15 12:59:00,65.1,38.7,30.00,West,270,3.1,5.3,38,0.00,,,0.00,WUHU21636XXSP,2013-03-15 17:59:00,
2013-03-15 13:09:00,66.9,38.8,30.00,West,270,4.9,8.7,36,0.00,,,0.00,WUHU21636XXSP,2013-03-15 18:09:00,
2013-03-15 13:19:00,69.4,37.4,29.98,West,270,4.6,14.0,31,0.00,,,0.00,WUHU21636XXSP,2013-03-15 18:19:00,
2013-03-15 13:29:00,71.4,37.4,29.98,WNW,292,3.5,9.3,29,0.00,,,0.00,WUHU21636XXSP,2013-03-15 18:29:00,
2013-03-15 13:39:00,72.7,38.5,29.97,West,270,6.4,10.7,29,0.00,,,0.00,WUHU21636XXSP,2013-03-15 18:39:00,
2013-03-15 13:49:00,73.6,35.1,29.96,WNW,292,10.0,21.6,25,0.00,,,0.00,WUHU21636XXSP,2013-03-15 18:49:00,
2013-03-15 13:59:00,73.8,35.2,29.96,WNW,292,7.6,19.4,25,0.00,,,0.00,WUHU21636XXSP,2013-03-15 18:59:00,
2013-03-15 14:09:00,73.9,34.3,29.96,NW,315,11.6,19.2,24,0.00,,,0.00,WUHU21636XXSP,2013-03-15 19:09:00,
2013-03-15 14:19:00,73.6,34.2,29.96,NW,315,11.1,22.3,24,0.00,,,0.00,WUHU21636XXSP,2013-03-15 19:19:00,
2013-03-15 14:29:00,73.8,33.3,29.95,West,270,10.9,21.9,23,0.00,,,0.00,WUHU21636XXSP,2013-03-15 19:29:00,
2013-03-15 14:39:00,74.8,35.2,29.94,NNW,337,7.1,21.6,24,0.00,,,0.00,WUHU21636XXSP,2013-03-15 19:39:00,
2013-03-15 14:49:00,76.3,34.3,29.94,NW,315,10.7,19.9,22,0.00,,,0.00,WUHU21636XXSP,2013-03-15 19:49:00,
2013-03-15 14:59:00,77.5,34.3,29.93,NW,315,10.9,23.4,21,0.00,,,0.00,WUHU21636XXSP,2013-03-15 19:59:00,
2013-03-15 15:09:00,78.4,35.1,29.92,North,0,4.4,17.8,21,0.00,,,0.00,WUHU21636XXSP,2013-03-15 20:09:00,
2013-03-15 15:19:00,79.3,34.7,29.92,WNW,292,10.7,18.3,20,0.00,,,0.00,WUHU21636XXSP,2013-03-15 20:19:00,
2013-03-15 15:29:00,79.9,31.8,29.91,NW,315,9.6,19.0,18,0.00,,,0.00,WUHU21636XXSP,2013-03-15 20:29:00,
2013-03-15 15:39:00,80.4,30.6,29.91,West,270,12.3,20.3,17,0.00,,,0.00,WUHU21636XXSP,2013-03-15 20:39:00,
2013-03-15 15:49:00,80.8,34.3,29.91,NW,315,12.3,21.6,19,0.00,,,0.00,WUHU21636XXSP,2013-03-15 20:49:00,
2013-03-15 15:59:00,81.1,32.9,29.90,NNW,337,7.6,21.0,18,0.00,,,0.00,WUHU21636XXSP,2013-03-15 20:59:00,
2013-03-15 16:09:00,81.3,34.7,29.91,NNW,337,10.7,29.3,19,0.00,,,0.00,WUHU21636XXSP,2013-03-15 21:09:00,
2013-03-15 16:19:00,81.7,31.6,29.91,WNW,292,13.4,27.7,17,0.00,,,0.00,WUHU21636XXSP,2013-03-15 21:19:00,
2013-03-15 16:29:00,82.0,30.2,29.90,WNW,292,9.6,22.5,16,0.00,,,0.00,WUHU21636XXSP,2013-03-15 21:29:00,
2013-03-15 16:39:00,81.9,30.2,29.90,WNW,292,7.3,24.6,16,0.00,,,0.00,WUHU21636XXSP,2013-03-15 21:39:00,
2013-03-15 16:49:00,81.5,31.5,29.90,WNW,292,7.8,19.6,17,0.00,,,0.00,WUHU21636XXSP,2013-03-15 21:49:00,
2013-03-15 16:59:00,81.3,29.7,29.90,NW,315,8.5,22.1,16,0.00,,,0.00,WUHU21636XXSP,2013-03-15 21:59:00,
2013-03-15 17:09:00,80.6,30.7,29.90,WNW,292,8.0,21.9,17,0.00,,,0.00,WUHU21636XXSP,2013-03-15 22:09:00,
2013-03-15 17:19:00,80.2,30.6,29.90,NNW,337,10.0,24.8,17,0.00,,,0.00,WUHU21636XXSP,2013-03-15 22:19:00,
2013-03-15 17:29:00,79.0,31.1,29.90,WNW,292,13.4,20.8,18,0.00,,,0.00,WUHU21636XXSP,2013-03-15 22:29:00,
2013-03-15 17:39:00,77.9,33.6,29.90,NW,315,6.4,19.6,20,0.00,,,0.00,WUHU21636XXSP,2013-03-15 22:39:00,
2013-03-15 17:49:00,77.5,33.3,29.90,NW,315,3.8,12.7,20,0.00,,,0.00,WUHU21636XXSP,2013-03-15 22:49:00,
2013-03-15 17:59:00,78.1,30.4,29.90,West,270,9.8,21.0,18,0.00,,,0.00,WUHU21636XXSP,2013-03-15 22:59:00,
2013-03-15 18:09:00,78.4,30.6,29.90,NW,315,6.0,21.4,18,0.00,,,0.00,WUHU21636XXSP,2013-03-15 23:09:00,
2013-03-15 18:19:00,78.1,30.4,29.90,NW,315,7.1,14.9,18,0.00,,,0.00,WUHU21636XXSP,2013-03-15 23:19:00,
2013-03-15 18:29:00,77.0,29.5,29.90,NW,315,6.2,19.4,18,0.00,,,0.00,WUHU21636XXSP,2013-03-15 23:29:00,
2013-03-15 18:39:00,76.6,32.5,29.90,North,0,3.8,14.9,20,0.00,,,0.00,WUHU21636XXSP,2013-03-15 23:39:00,
2013-03-15 18:49:00,75.9,28.6,29.90,NNW,337,11.6,16.5,18,0.00,,,0.00,WUHU21636XXSP,2013-03-15 23:49:00,
2013-03-15 18:59:00,74.8,31.1,29.90,North,0,7.3,16.5,20,0.00,,,0.00,WUHU21636XXSP,2013-03-15 23:59:00,
2013-03-15 19:09:00,73.8,28.6,29.90,NNW,337,3.5,10.5,19,0.00,,,0.00,WUHU21636XXSP,2013-03-16 00:09:00,
2013-03-15 19:19:00,72.7,30.4,29.91,North,0,6.0,11.4,21,0.00,,,0.00,WUHU21636XXSP,2013-03-16 00:19:00,
2013-03-15 19:29:00,71.2,30.0,29.91,NNE,22,4.9,14.9,22,0.00,,,0.00,WUHU21636XXSP,2013-03-16 00:29:00,
2013-03-15 19:39:00,70.2,30.2,29.91,NNE,22,3.8,11.6,23,0.00,,,0.00,WUHU21636XXSP,2013-03-16 00:39:00,
2013-03-15 19:50:00,69.4,29.7,29.91,North,0,5.3,11.1,23,0.00,,,0.00,WUHU21636XXSP,2013-03-16 00:50:00,
2013-03-15 20:00:00,68.5,29.8,29.92,North,0,4.6,7.3,24,0.00,,,0.00,WUHU21636XXSP,2013-03-16 01:00:00,
2013-03-15 20:10:00,67.8,29.3,29.93,North,0,2.0,6.4,24,0.00,,,0.00,WUHU21636XXSP,2013-03-16 01:10:00,
2013-03-15 20:20:00,66.7,29.3,29.93,NNE,22,2.4,5.8,25,0.00,,,0.00,WUHU21636XXSP,2013-03-16 01:20:00,
2013-03-15 20:30:00,66.0,28.8,29.93,NNE,22,4.9,4.9,25,0.00,,,0.00,WUHU21636XXSP,2013-03-16 01:30:00,
2013-03-15 20:40:00,65.1,28.9,29.93,NNE,22,4.4,4.9,26,0.00,,,0.00,WUHU21636XXSP,2013-03-16 01:40:00,
2013-03-15 20:50:00,64.4,29.3,29.94,NNE,22,4.6,4.6,27,0.00,,,0.00,WUHU21636XXSP,2013-03-16 01:50:00,
2013-03-15 21:00:00,63.7,29.7,29.94,NE,45,6.0,9.3,28,0.00,,,0.00,WUHU21636XXSP,2013-03-16 02:00:00,
2013-03-15 21:10:00,63.0,30.0,29.94,NE,45,5.3,10.2,29,0.00,,,0.00,WUHU21636XXSP,2013-03-16 02:10:00,
2013-03-15 21:20:00,62.2,30.4,29.94,NE,45,4.2,11.1,30,0.00,,,0.00,WUHU21636XXSP,2013-03-16 02:20:00,
2013-03-15 21:30:00,61.3,30.9,29.95,NE,45,3.1,8.9,32,0.00,,,0.00,WUHU21636XXSP,2013-03-16 02:30:00,
2013-03-15 21:40:00,60.6,31.8,29.96,NNE,22,5.8,14.3,34,0.00,,,0.00,WUHU21636XXSP,2013-03-16 02:40:00,
2013-03-15 21:50:00,60.1,33.4,29.97,East,90,10.7,20.1,37,0.00,,,0.00,WUHU21636XXSP,2013-03-16 02:50:00,
2013-03-15 22:00:00,59.7,35.2,29.97,ENE,67,14.5,21.9,40,0.00,,,0.00,WUHU21636XXSP,2013-03-16 03:00:00,
2013-03-15 22:10:00,59.4,36.1,29.98,ENE,67,13.6,24.6,42,0.00,,,0.00,WUHU21636XXSP,2013-03-16 03:10:00,
2013-03-15 22:20:00,59.0,36.3,29.99,ENE,67,10.7,19.2,43,0.00,,,0.00,WUHU21636XXSP,2013-03-16 03:20:00,
2013-03-15 22:30:00,58.3,36.3,29.99,ENE,67,8.5,16.7,44,0.00,,,0.00,WUHU21636XXSP,2013-03-16 03:30:00,
2013-03-15 22:40:00,57.7,36.9,29.99,ENE,67,8.7,14.3,46,0.00,,,0.00,WUHU21636XXSP,2013-03-16 03:40:00,
2013-03-15 22:50:00,57.0,36.9,29.99,ENE,67,10.0,19.4,47,0.00,,,0.00,WUHU21636XXSP,2013-03-16 03:50:00,
2013-03-15 23:00:00,56.5,36.9,29.99,ENE,67,10.7,20.3,48,0.00,,,0.00,WUHU21636XXSP,2013-03-16 04:00:00,
2013-03-15 23:10:00,55.9,36.9,29.99,NE,45,9.1,17.2,49,0.00,,,0.00,WUHU21636XXSP,2013-03-16 04:10:00,
2013-03-15 23:20:00,55.2,36.9,30.00,NE,45,7.1,17.2,50,0.00,,,0.00,WUHU21636XXSP,2013-03-16 04:20:00,
2013-03-15 23:30:00,54.7,36.3,30.00,East,90,7.8,17.8,50,0.00,,,0.00,WUHU21636XXSP,2013-03-16 04:30:00,
2013-03-15 23:40:00,54.3,36.5,30.00,ENE,67,9.6,17.2,51,0.00,,,0.00,WUHU21636XXSP,2013-03-16 04:40:00,
2013-03-15 23:50:00,53.8,36.5,30.00,ENE,67,8.9,19.0,52,0.00,,,0.00,WUHU21636XXSP,2013-03-16 04:50:00,